Weather reports worldwide

Advertisment
Bradford, United Kingdom (99171): temperature & dewpoint: 14.06.2019 13:00:00 - 20.06.2019 13:00:00 (BST)Bradford, United Kingdom (99171): temperature -20cm & temperature -100cm: 14.06.2019 13:00:00 - 20.06.2019 13:00:00 (BST)Bradford, United Kingdom (99171): precipitation: 14.06.2019 13:00:00 - 20.06.2019 13:00:00 (BST)
Date & Time tt [°C] td [°C] tt -20cm [°C] tt -100cm [°C] rr [mm]
20.06.2019 13:00:00 - - - - -
20.06.2019 12:00:00 15,0 7,5 - - -
20.06.2019 11:00:00 15,1 8,8 - - 0,0
20.06.2019 10:00:00 13,6 7,8 15,7 13,0 0,2
20.06.2019 09:00:00 12,7 8,8 - - 0,0
20.06.2019 08:00:00 11,8 8,7 - - 0,0
20.06.2019 07:00:00 11,2 9,1 - - 0,0
20.06.2019 06:00:00 11,0 8,6 - - 0,0
20.06.2019 05:00:00 10,7 7,6 - - 0,0
20.06.2019 04:00:00 11,0 7,5 - - 0,0
20.06.2019 03:00:00 11,4 7,3 - - 0,0
20.06.2019 02:00:00 9,4 7,0 - - 0,0
20.06.2019 01:00:00 8,8 6,6 - - 0,0
20.06.2019 00:00:00 9,8 6,7 - - 0,0
19.06.2019 23:00:00 11,1 5,9 - - 0,0
19.06.2019 22:00:00 13,2 5,7 - - 0,0
19.06.2019 21:00:00 15,1 6,3 - - 0,0
19.06.2019 20:00:00 16,6 7,1 - - 0,0
19.06.2019 19:00:00 17,1 6,8 - - 0,0
19.06.2019 18:00:00 18,5 8,0 - - 0,0
19.06.2019 17:00:00 17,9 8,6 - - 0,0
19.06.2019 16:00:00 18,2 9,5 - - 0,0
19.06.2019 15:00:00 17,7 9,0 - - 0,0
19.06.2019 14:00:00 19,1 9,3 - - 0,0
19.06.2019 13:00:00 17,5 8,6 - - 0,0
19.06.2019 12:00:00 16,1 11,2 - - 0,0
19.06.2019 11:00:00 14,1 12,0 - - 0,0
19.06.2019 10:00:00 12,6 11,7 15,5 12,7 0,0
19.06.2019 09:00:00 11,3 10,3 - - 0,0
19.06.2019 08:00:00 11,2 10,5 - - 0,2
19.06.2019 07:00:00 11,6 11,0 - - 0,8
19.06.2019 06:00:00 12,6 12,0 - - 0,2
19.06.2019 05:00:00 12,6 11,7 - - 0,2
19.06.2019 04:00:00 12,8 11,6 - - 0,4
19.06.2019 03:00:00 13,5 12,7 - - 0,0
19.06.2019 02:00:00 13,7 12,5 - - 0,0
19.06.2019 01:00:00 13,9 12,5 - - 0,0
19.06.2019 00:00:00 14,3 12,9 - - 0,2
18.06.2019 23:00:00 14,7 12,7 - - 0,4
18.06.2019 22:00:00 15,5 12,0 - - 0,0
18.06.2019 21:00:00 17,0 10,6 - - 0,0
18.06.2019 20:00:00 17,5 10,4 - - 0,0
18.06.2019 19:00:00 17,9 10,3 - - 0,0
18.06.2019 18:00:00 18,2 10,6 - - 0,0
18.06.2019 17:00:00 18,8 10,0 - - 0,0
18.06.2019 16:00:00 18,6 9,2 - - 0,0
18.06.2019 15:00:00 18,9 8,5 - - 0,0
18.06.2019 14:00:00 18,8 9,2 - - 0,0
18.06.2019 13:00:00 18,3 8,1 - - 0,0
18.06.2019 12:00:00 17,6 9,0 - - 0,0
18.06.2019 11:00:00 16,3 9,3 - - 0,0
18.06.2019 10:00:00 15,1 9,4 14,7 12,7 0,0
18.06.2019 09:00:00 14,1 9,8 - - 0,0
18.06.2019 08:00:00 13,2 9,7 - - 0,0
18.06.2019 07:00:00 12,8 10,1 - - 0,0
18.06.2019 06:00:00 11,1 9,5 - - 0,0
18.06.2019 05:00:00 11,1 9,5 - - 0,0
18.06.2019 04:00:00 11,1 9,2 - - 0,0
18.06.2019 03:00:00 11,5 9,2 - - 0,0
18.06.2019 02:00:00 11,8 7,9 - - 0,0
18.06.2019 01:00:00 12,1 8,8 - - 0,0
18.06.2019 00:00:00 12,4 8,6 - - 0,0
17.06.2019 23:00:00 13,5 9,3 - - 0,0
17.06.2019 22:00:00 14,8 11,0 - - 0,0
17.06.2019 21:00:00 15,3 11,8 - - 0,0
17.06.2019 20:00:00 15,4 12,0 - - 0,0
17.06.2019 19:00:00 15,4 11,9 - - 0,0
17.06.2019 18:00:00 14,9 12,1 - - 0,6
17.06.2019 17:00:00 18,0 10,8 - - 0,0
17.06.2019 16:00:00 19,1 10,9 - - 0,0
17.06.2019 15:00:00 17,5 10,1 - - 0,0
17.06.2019 14:00:00 17,3 10,0 - - 0,0
17.06.2019 13:00:00 16,9 10,0 - - 0,0
17.06.2019 12:00:00 16,2 11,3 - - 0,0
17.06.2019 11:00:00 15,0 11,8 - - 0,0
17.06.2019 10:00:00 13,3 11,3 14,2 12,7 0,0
17.06.2019 09:00:00 13,0 9,6 - - 0,0
17.06.2019 08:00:00 12,2 9,7 - - 0,0
17.06.2019 07:00:00 12,1 9,8 - - 0,0
17.06.2019 06:00:00 12,2 10,4 - - 0,0
17.06.2019 05:00:00 12,9 10,9 - - 0,4
17.06.2019 04:00:00 13,2 10,7 - - 0,0
17.06.2019 03:00:00 13,2 10,3 - - 0,0
17.06.2019 02:00:00 13,0 10,6 - - 0,2
17.06.2019 01:00:00 13,8 10,0 - - 0,0
17.06.2019 00:00:00 14,4 10,6 - - 0,0
16.06.2019 23:00:00 14,7 10,8 - - 0,0
16.06.2019 22:00:00 14,7 11,0 - - 0,0
16.06.2019 21:00:00 14,8 11,2 - - 0,0
16.06.2019 20:00:00 15,0 11,2 - - 0,2
16.06.2019 19:00:00 15,9 10,2 - - 0,0
16.06.2019 18:00:00 17,6 8,8 - - 0,0
16.06.2019 17:00:00 17,0 9,9 - - 0,0
16.06.2019 16:00:00 16,9 10,2 - - 0,2
16.06.2019 15:00:00 15,2 9,6 - - 0,0
16.06.2019 14:00:00 17,4 8,4 - - 0,0
16.06.2019 13:00:00 16,4 8,9 - - 0,0
16.06.2019 12:00:00 14,7 7,9 - - 0,0
16.06.2019 11:00:00 14,6 8,6 - - 0,0
16.06.2019 10:00:00 14,0 9,0 13,7 12,5 0,0
16.06.2019 09:00:00 13,1 9,1 - - 0,0
16.06.2019 08:00:00 12,7 9,2 - - 0,0
16.06.2019 07:00:00 10,9 8,4 - - 0,0
16.06.2019 06:00:00 8,1 7,7 - - 0,0
16.06.2019 05:00:00 6,7 6,3 - - 0,0
16.06.2019 04:00:00 7,4 6,8 - - 0,0
16.06.2019 03:00:00 8,1 7,6 - - 0,0
16.06.2019 02:00:00 8,0 7,3 - - 0,0
16.06.2019 01:00:00 9,5 8,4 - - 0,2
16.06.2019 00:00:00 10,1 9,8 - - 0,0
15.06.2019 23:00:00 9,2 8,7 - - 0,0
15.06.2019 22:00:00 10,4 9,5 - - 0,0
15.06.2019 21:00:00 12,0 10,6 - - 0,0
15.06.2019 20:00:00 12,3 10,8 - - 0,2
15.06.2019 19:00:00 12,4 9,9 - - 0,0
15.06.2019 18:00:00 12,5 10,8 - - 1,0
15.06.2019 17:00:00 12,0 10,8 - - 1,6
15.06.2019 16:00:00 12,6 9,3 - - 0,0
15.06.2019 15:00:00 13,8 11,1 - - 0,6
15.06.2019 14:00:00 14,9 9,6 - - 0,0
15.06.2019 13:00:00 15,4 9,6 - - 0,0
15.06.2019 12:00:00 14,9 9,3 - - 0,0
15.06.2019 11:00:00 15,3 9,9 - - 0,0
15.06.2019 10:00:00 14,1 8,8 13,7 12,4 0,0
15.06.2019 09:00:00 13,8 8,5 - - 0,0
15.06.2019 08:00:00 12,9 8,6 - - 0,0
15.06.2019 07:00:00 12,0 8,6 - - 0,0
15.06.2019 06:00:00 9,9 9,1 - - 0,0
15.06.2019 05:00:00 10,3 9,8 - - 0,0
15.06.2019 04:00:00 9,9 9,4 - - 0,0
15.06.2019 03:00:00 10,2 9,5 - - 0,0
15.06.2019 02:00:00 10,8 9,9 - - 0,0
15.06.2019 01:00:00 11,6 10,6 - - 0,0
15.06.2019 00:00:00 11,1 10,3 - - 0,0
14.06.2019 23:00:00 12,0 10,7 - - 0,0
14.06.2019 22:00:00 12,8 10,8 - - 0,0
14.06.2019 21:00:00 13,0 10,7 - - 0,0
14.06.2019 20:00:00 13,3 9,9 - - 0,0
14.06.2019 19:00:00 13,8 9,1 - - 0,0
14.06.2019 18:00:00 14,6 9,4 - - 0,0
14.06.2019 17:00:00 16,1 6,8 - - 0,0
14.06.2019 16:00:00 15,7 6,7 - - 0,0
14.06.2019 15:00:00 15,8 6,0 - - 0,0
14.06.2019 14:00:00 15,3 6,5 - - 0,0
14.06.2019 13:00:00 14,0 7,6 - - 0,0

tt = temperature
td = dewpoint
tt -20cm = temperature -20cm
tt -100cm = temperature -100cm
rr = precipitation

Next stations